sensor_id;sensor_type;location;lat;lon;timestamp;P1;durP1;ratioP1;P2;durP2;ratioP2
15281;SDS011;7742;44.320;19.820;2023-02-19T00:08:21;17.60;;;16.40;;
15281;SDS011;7742;44.320;19.820;2023-02-19T00:10:48;18.05;;;16.92;;
15281;SDS011;7742;44.320;19.820;2023-02-19T00:13:15;18.60;;;17.50;;
15281;SDS011;7742;44.320;19.820;2023-02-19T00:15:43;19.02;;;17.85;;
15281;SDS011;7742;44.320;19.820;2023-02-19T00:18:10;19.17;;;17.97;;
15281;SDS011;7742;44.320;19.820;2023-02-19T00:20:37;19.15;;;17.95;;
15281;SDS011;7742;44.320;19.820;2023-02-19T00:23:04;18.38;;;17.27;;
15281;SDS011;7742;44.320;19.820;2023-02-19T00:25:33;18.70;;;17.50;;
15281;SDS011;7742;44.320;19.820;2023-02-19T00:28:02;19.13;;;17.92;;
15281;SDS011;7742;44.320;19.820;2023-02-19T00:30:29;18.20;;;17.10;;
15281;SDS011;7742;44.320;19.820;2023-02-19T00:32:56;18.30;;;17.20;;
15281;SDS011;7742;44.320;19.820;2023-02-19T00:35:24;18.67;;;17.58;;
15281;SDS011;7742;44.320;19.820;2023-02-19T00:37:54;18.10;;;16.85;;
15281;SDS011;7742;44.320;19.820;2023-02-19T00:43:43;19.52;;;18.23;;
15281;SDS011;7742;44.320;19.820;2023-02-19T00:46:11;18.40;;;17.20;;
15281;SDS011;7742;44.320;19.820;2023-02-19T00:48:38;18.47;;;17.37;;
15281;SDS011;7742;44.320;19.820;2023-02-19T00:54:08;19.05;;;17.80;;
15281;SDS011;7742;44.320;19.820;2023-02-19T00:56:37;19.15;;;17.92;;
15281;SDS011;7742;44.320;19.820;2023-02-19T00:59:04;19.35;;;18.15;;
15281;SDS011;7742;44.320;19.820;2023-02-19T01:01:31;19.88;;;18.67;;
15281;SDS011;7742;44.320;19.820;2023-02-19T01:03:58;19.65;;;18.40;;
15281;SDS011;7742;44.320;19.820;2023-02-19T01:06:25;19.10;;;18.00;;
15281;SDS011;7742;44.320;19.820;2023-02-19T01:08:55;19.65;;;18.35;;
15281;SDS011;7742;44.320;19.820;2023-02-19T01:11:25;18.95;;;17.85;;
15281;SDS011;7742;44.320;19.820;2023-02-19T01:13:57;18.90;;;17.67;;
15281;SDS011;7742;44.320;19.820;2023-02-19T01:16:24;18.63;;;17.52;;
15281;SDS011;7742;44.320;19.820;2023-02-19T01:18:52;18.52;;;17.33;;
15281;SDS011;7742;44.320;19.820;2023-02-19T01:21:30;17.83;;;16.63;;
15281;SDS011;7742;44.320;19.820;2023-02-19T01:23:57;18.23;;;17.13;;
15281;SDS011;7742;44.320;19.820;2023-02-19T01:26:25;18.10;;;17.00;;
15281;SDS011;7742;44.320;19.820;2023-02-19T01:28:54;17.77;;;16.67;;
15281;SDS011;7742;44.320;19.820;2023-02-19T01:31:23;17.88;;;16.77;;
15281;SDS011;7742;44.320;19.820;2023-02-19T01:33:51;18.35;;;17.25;;
15281;SDS011;7742;44.320;19.820;2023-02-19T01:36:19;18.63;;;17.58;;
15281;SDS011;7742;44.320;19.820;2023-02-19T01:38:47;17.70;;;16.60;;
15281;SDS011;7742;44.320;19.820;2023-02-19T01:41:15;18.40;;;17.30;;
15281;SDS011;7742;44.320;19.820;2023-02-19T01:43:58;18.10;;;17.00;;
15281;SDS011;7742;44.320;19.820;2023-02-19T01:46:35;18.83;;;17.63;;
15281;SDS011;7742;44.320;19.820;2023-02-19T01:49:05;18.47;;;17.37;;
15281;SDS011;7742;44.320;19.820;2023-02-19T01:51:34;19.05;;;17.85;;
15281;SDS011;7742;44.320;19.820;2023-02-19T01:54:14;19.40;;;18.27;;
15281;SDS011;7742;44.320;19.820;2023-02-19T01:56:44;19.67;;;18.50;;
15281;SDS011;7742;44.320;19.820;2023-02-19T01:59:13;18.75;;;17.65;;
15281;SDS011;7742;44.320;19.820;2023-02-19T02:01:43;18.70;;;17.50;;
15281;SDS011;7742;44.320;19.820;2023-02-19T02:07:29;19.40;;;18.13;;
15281;SDS011;7742;44.320;19.820;2023-02-19T02:10:13;19.80;;;18.48;;
15281;SDS011;7742;44.320;19.820;2023-02-19T02:12:47;18.33;;;17.23;;
15281;SDS011;7742;44.320;19.820;2023-02-19T02:15:15;19.52;;;18.23;;
15281;SDS011;7742;44.320;19.820;2023-02-19T02:17:46;19.42;;;18.23;;
15281;SDS011;7742;44.320;19.820;2023-02-19T02:20:24;18.27;;;17.07;;
15281;SDS011;7742;44.320;19.820;2023-02-19T02:22:58;19.70;;;18.40;;
15281;SDS011;7742;44.320;19.820;2023-02-19T02:25:39;19.05;;;17.95;;
15281;SDS011;7742;44.320;19.820;2023-02-19T02:28:24;19.25;;;18.05;;
15281;SDS011;7742;44.320;19.820;2023-02-19T02:31:03;19.13;;;17.83;;
15281;SDS011;7742;44.320;19.820;2023-02-19T02:33:35;18.88;;;17.58;;
15281;SDS011;7742;44.320;19.820;2023-02-19T02:36:04;18.98;;;17.83;;
15281;SDS011;7742;44.320;19.820;2023-02-19T02:38:34;18.77;;;17.67;;
15281;SDS011;7742;44.320;19.820;2023-02-19T02:41:03;20.67;;;19.27;;
15281;SDS011;7742;44.320;19.820;2023-02-19T02:43:31;20.10;;;18.73;;
15281;SDS011;7742;44.320;19.820;2023-02-19T02:45:58;20.60;;;19.30;;
15281;SDS011;7742;44.320;19.820;2023-02-19T02:48:28;19.38;;;18.17;;
15281;SDS011;7742;44.320;19.820;2023-02-19T02:50:58;20.75;;;19.30;;
15281;SDS011;7742;44.320;19.820;2023-02-19T02:53:28;20.58;;;19.08;;
15281;SDS011;7742;44.320;19.820;2023-02-19T02:56:16;20.45;;;19.15;;
15281;SDS011;7742;44.320;19.820;2023-02-19T02:58:44;21.95;;;20.45;;
15281;SDS011;7742;44.320;19.820;2023-02-19T03:01:14;20.33;;;18.92;;
15281;SDS011;7742;44.320;19.820;2023-02-19T03:04:02;20.10;;;18.80;;
15281;SDS011;7742;44.320;19.820;2023-02-19T03:06:32;19.60;;;18.35;;
15281;SDS011;7742;44.320;19.820;2023-02-19T03:09:01;20.80;;;19.40;;
15281;SDS011;7742;44.320;19.820;2023-02-19T03:11:33;21.27;;;19.88;;
15281;SDS011;7742;44.320;19.820;2023-02-19T03:14:19;21.17;;;19.85;;
15281;SDS011;7742;44.320;19.820;2023-02-19T03:17:06;20.40;;;19.00;;
15281;SDS011;7742;44.320;19.820;2023-02-19T03:19:54;20.42;;;19.13;;
15281;SDS011;7742;44.320;19.820;2023-02-19T03:22:23;20.80;;;19.40;;
15281;SDS011;7742;44.320;19.820;2023-02-19T03:24:53;20.50;;;19.20;;
15281;SDS011;7742;44.320;19.820;2023-02-19T03:27:40;21.20;;;19.80;;
15281;SDS011;7742;44.320;19.820;2023-02-19T03:30:10;20.90;;;19.50;;
15281;SDS011;7742;44.320;19.820;2023-02-19T03:32:39;21.23;;;19.83;;
15281;SDS011;7742;44.320;19.820;2023-02-19T03:35:10;21.02;;;19.63;;
15281;SDS011;7742;44.320;19.820;2023-02-19T03:37:43;21.20;;;19.70;;
15281;SDS011;7742;44.320;19.820;2023-02-19T03:40:12;21.65;;;20.15;;
15281;SDS011;7742;44.320;19.820;2023-02-19T03:42:41;20.83;;;19.52;;
15281;SDS011;7742;44.320;19.820;2023-02-19T03:45:23;20.20;;;18.90;;
15281;SDS011;7742;44.320;19.820;2023-02-19T03:47:56;22.80;;;21.20;;
15281;SDS011;7742;44.320;19.820;2023-02-19T03:50:33;22.80;;;21.23;;
15281;SDS011;7742;44.320;19.820;2023-02-19T03:53:04;21.35;;;19.88;;
15281;SDS011;7742;44.320;19.820;2023-02-19T03:55:36;21.02;;;19.50;;
15281;SDS011;7742;44.320;19.820;2023-02-19T03:58:07;21.58;;;20.08;;
15281;SDS011;7742;44.320;19.820;2023-02-19T04:00:39;21.58;;;19.98;;
15281;SDS011;7742;44.320;19.820;2023-02-19T04:03:10;21.85;;;20.35;;
15281;SDS011;7742;44.320;19.820;2023-02-19T04:05:43;22.50;;;20.80;;
15281;SDS011;7742;44.320;19.820;2023-02-19T04:08:14;23.27;;;21.58;;
15281;SDS011;7742;44.320;19.820;2023-02-19T04:10:43;23.98;;;22.25;;
15281;SDS011;7742;44.320;19.820;2023-02-19T04:13:14;24.85;;;23.02;;
15281;SDS011;7742;44.320;19.820;2023-02-19T04:15:43;23.42;;;21.75;;
15281;SDS011;7742;44.320;19.820;2023-02-19T04:18:13;23.87;;;22.17;;
15281;SDS011;7742;44.320;19.820;2023-02-19T04:20:43;22.45;;;20.95;;
15281;SDS011;7742;44.320;19.820;2023-02-19T04:23:11;23.48;;;21.75;;
15281;SDS011;7742;44.320;19.820;2023-02-19T04:25:40;22.38;;;20.85;;
15281;SDS011;7742;44.320;19.820;2023-02-19T04:28:08;23.15;;;21.55;;
15281;SDS011;7742;44.320;19.820;2023-02-19T04:30:36;23.13;;;21.52;;
15281;SDS011;7742;44.320;19.820;2023-02-19T04:33:03;23.77;;;22.17;;
15281;SDS011;7742;44.320;19.820;2023-02-19T04:35:30;23.97;;;22.27;;
15281;SDS011;7742;44.320;19.820;2023-02-19T04:37:59;24.52;;;22.83;;
15281;SDS011;7742;44.320;19.820;2023-02-19T04:40:26;24.50;;;22.75;;
15281;SDS011;7742;44.320;19.820;2023-02-19T04:42:54;22.80;;;21.20;;
15281;SDS011;7742;44.320;19.820;2023-02-19T04:45:21;23.13;;;21.50;;
15281;SDS011;7742;44.320;19.820;2023-02-19T04:47:48;21.42;;;20.02;;
15281;SDS011;7742;44.320;19.820;2023-02-19T04:50:15;23.00;;;21.30;;
15281;SDS011;7742;44.320;19.820;2023-02-19T04:52:42;21.50;;;19.92;;
15281;SDS011;7742;44.320;19.820;2023-02-19T04:55:11;20.90;;;19.58;;
15281;SDS011;7742;44.320;19.820;2023-02-19T04:57:38;21.00;;;19.60;;
15281;SDS011;7742;44.320;19.820;2023-02-19T05:00:06;20.40;;;19.00;;
15281;SDS011;7742;44.320;19.820;2023-02-19T05:02:34;20.60;;;19.30;;
15281;SDS011;7742;44.320;19.820;2023-02-19T05:05:01;20.35;;;19.00;;
15281;SDS011;7742;44.320;19.820;2023-02-19T05:07:29;20.17;;;18.88;;
15281;SDS011;7742;44.320;19.820;2023-02-19T05:09:56;21.33;;;19.92;;
15281;SDS011;7742;44.320;19.820;2023-02-19T05:12:25;22.45;;;20.95;;
15281;SDS011;7742;44.320;19.820;2023-02-19T05:14:52;22.00;;;20.35;;
15281;SDS011;7742;44.320;19.820;2023-02-19T05:17:20;22.60;;;21.05;;
15281;SDS011;7742;44.320;19.820;2023-02-19T05:19:47;21.55;;;20.25;;
15281;SDS011;7742;44.320;19.820;2023-02-19T05:22:14;20.67;;;19.38;;
15281;SDS011;7742;44.320;19.820;2023-02-19T05:24:41;21.40;;;19.98;;
15281;SDS011;7742;44.320;19.820;2023-02-19T05:27:09;20.63;;;19.23;;
15281;SDS011;7742;44.320;19.820;2023-02-19T05:29:41;21.73;;;20.33;;
15281;SDS011;7742;44.320;19.820;2023-02-19T05:32:09;22.50;;;21.10;;
15281;SDS011;7742;44.320;19.820;2023-02-19T05:34:36;21.80;;;20.30;;
15281;SDS011;7742;44.320;19.820;2023-02-19T05:37:04;21.67;;;20.27;;
15281;SDS011;7742;44.320;19.820;2023-02-19T05:39:35;21.63;;;20.02;;
15281;SDS011;7742;44.320;19.820;2023-02-19T05:42:02;21.50;;;20.10;;
15281;SDS011;7742;44.320;19.820;2023-02-19T05:44:29;20.83;;;19.35;;
15281;SDS011;7742;44.320;19.820;2023-02-19T05:53:01;20.73;;;19.42;;
15281;SDS011;7742;44.320;19.820;2023-02-19T05:55:40;20.52;;;19.23;;
15281;SDS011;7742;44.320;19.820;2023-02-19T05:58:24;21.45;;;20.05;;
15281;SDS011;7742;44.320;19.820;2023-02-19T06:00:53;20.70;;;19.40;;
15281;SDS011;7742;44.320;19.820;2023-02-19T06:04:11;19.17;;;18.07;;
15281;SDS011;7742;44.320;19.820;2023-02-19T06:06:42;17.03;;;16.03;;
15281;SDS011;7742;44.320;19.820;2023-02-19T06:09:09;17.05;;;16.05;;
15281;SDS011;7742;44.320;19.820;2023-02-19T06:11:37;18.25;;;17.15;;
15281;SDS011;7742;44.320;19.820;2023-02-19T06:14:07;17.90;;;16.80;;
15281;SDS011;7742;44.320;19.820;2023-02-19T06:16:35;19.90;;;18.70;;
15281;SDS011;7742;44.320;19.820;2023-02-19T06:19:02;19.55;;;18.33;;
15281;SDS011;7742;44.320;19.820;2023-02-19T06:21:30;18.65;;;17.55;;
15281;SDS011;7742;44.320;19.820;2023-02-19T06:24:02;19.00;;;17.90;;
15281;SDS011;7742;44.320;19.820;2023-02-19T06:26:30;19.17;;;17.88;;
15281;SDS011;7742;44.320;19.820;2023-02-19T06:28:57;18.65;;;17.45;;
15281;SDS011;7742;44.320;19.820;2023-02-19T06:31:25;19.08;;;18.08;;
15281;SDS011;7742;44.320;19.820;2023-02-19T06:33:52;19.58;;;18.38;;
15281;SDS011;7742;44.320;19.820;2023-02-19T06:36:20;21.13;;;19.83;;
15281;SDS011;7742;44.320;19.820;2023-02-19T06:38:47;21.10;;;19.70;;
15281;SDS011;7742;44.320;19.820;2023-02-19T06:41:16;20.45;;;19.17;;
15281;SDS011;7742;44.320;19.820;2023-02-19T06:43:55;21.60;;;20.30;;
15281;SDS011;7742;44.320;19.820;2023-02-19T06:46:23;20.25;;;18.95;;
15281;SDS011;7742;44.320;19.820;2023-02-19T06:48:52;19.98;;;18.80;;
15281;SDS011;7742;44.320;19.820;2023-02-19T06:51:38;21.65;;;20.27;;
15281;SDS011;7742;44.320;19.820;2023-02-19T06:54:56;19.95;;;18.75;;
15281;SDS011;7742;44.320;19.820;2023-02-19T06:57:25;19.33;;;18.13;;
15281;SDS011;7742;44.320;19.820;2023-02-19T06:59:52;19.40;;;18.20;;
15281;SDS011;7742;44.320;19.820;2023-02-19T07:02:19;18.83;;;17.63;;
15281;SDS011;7742;44.320;19.820;2023-02-19T07:04:47;18.63;;;17.55;;
15281;SDS011;7742;44.320;19.820;2023-02-19T07:07:18;19.65;;;18.45;;
15281;SDS011;7742;44.320;19.820;2023-02-19T07:09:45;19.00;;;17.90;;
15281;SDS011;7742;44.320;19.820;2023-02-19T07:15:39;18.77;;;17.67;;
15281;SDS011;7742;44.320;19.820;2023-02-19T07:18:30;19.08;;;17.98;;
15281;SDS011;7742;44.320;19.820;2023-02-19T07:24:49;18.65;;;17.60;;
15281;SDS011;7742;44.320;19.820;2023-02-19T07:27:16;19.88;;;18.67;;
15281;SDS011;7742;44.320;19.820;2023-02-19T07:29:45;19.85;;;18.65;;
15281;SDS011;7742;44.320;19.820;2023-02-19T07:32:12;20.08;;;18.95;;
15281;SDS011;7742;44.320;19.820;2023-02-19T07:34:39;19.92;;;18.77;;
15281;SDS011;7742;44.320;19.820;2023-02-19T07:37:06;19.70;;;18.60;;
15281;SDS011;7742;44.320;19.820;2023-02-19T07:39:33;20.30;;;19.10;;
15281;SDS011;7742;44.320;19.820;2023-02-19T07:42:01;20.48;;;19.27;;
15281;SDS011;7742;44.320;19.820;2023-02-19T07:44:28;19.83;;;18.73;;
15281;SDS011;7742;44.320;19.820;2023-02-19T07:46:56;19.13;;;18.02;;
15281;SDS011;7742;44.320;19.820;2023-02-19T07:49:24;17.73;;;16.70;;
15281;SDS011;7742;44.320;19.820;2023-02-19T07:51:51;17.70;;;16.75;;
15281;SDS011;7742;44.320;19.820;2023-02-19T07:54:18;17.35;;;16.35;;
15281;SDS011;7742;44.320;19.820;2023-02-19T07:56:45;19.33;;;18.23;;
15281;SDS011;7742;44.320;19.820;2023-02-19T07:59:12;19.10;;;18.00;;
15281;SDS011;7742;44.320;19.820;2023-02-19T08:01:40;18.20;;;17.20;;
15281;SDS011;7742;44.320;19.820;2023-02-19T08:04:25;20.17;;;19.08;;
15281;SDS011;7742;44.320;19.820;2023-02-19T08:06:53;19.80;;;18.70;;
15281;SDS011;7742;44.320;19.820;2023-02-19T08:09:20;19.45;;;18.35;;
15281;SDS011;7742;44.320;19.820;2023-02-19T08:11:47;18.65;;;17.65;;
15281;SDS011;7742;44.320;19.820;2023-02-19T08:14:31;18.58;;;17.58;;
15281;SDS011;7742;44.320;19.820;2023-02-19T08:16:59;19.27;;;18.17;;
15281;SDS011;7742;44.320;19.820;2023-02-19T08:19:27;18.65;;;17.65;;
15281;SDS011;7742;44.320;19.820;2023-02-19T08:21:54;18.13;;;17.13;;
15281;SDS011;7742;44.320;19.820;2023-02-19T08:24:22;16.50;;;15.70;;
15281;SDS011;7742;44.320;19.820;2023-02-19T08:26:49;16.95;;;16.05;;
15281;SDS011;7742;44.320;19.820;2023-02-19T08:29:16;17.67;;;16.67;;
15281;SDS011;7742;44.320;19.820;2023-02-19T08:31:43;16.67;;;15.77;;
15281;SDS011;7742;44.320;19.820;2023-02-19T08:34:10;16.50;;;15.60;;
15281;SDS011;7742;44.320;19.820;2023-02-19T08:36:39;16.65;;;15.75;;
15281;SDS011;7742;44.320;19.820;2023-02-19T08:39:06;18.35;;;17.35;;
15281;SDS011;7742;44.320;19.820;2023-02-19T08:41:34;16.83;;;15.93;;
15281;SDS011;7742;44.320;19.820;2023-02-19T08:44:01;18.65;;;17.63;;
15281;SDS011;7742;44.320;19.820;2023-02-19T08:46:28;18.55;;;17.50;;
15281;SDS011;7742;44.320;19.820;2023-02-19T08:48:56;18.20;;;17.10;;
15281;SDS011;7742;44.320;19.820;2023-02-19T08:51:23;17.40;;;16.40;;
15281;SDS011;7742;44.320;19.820;2023-02-19T08:53:51;18.30;;;17.30;;
15281;SDS011;7742;44.320;19.820;2023-02-19T08:56:18;18.45;;;17.45;;
15281;SDS011;7742;44.320;19.820;2023-02-19T08:58:46;17.35;;;16.45;;
15281;SDS011;7742;44.320;19.820;2023-02-19T09:01:13;16.70;;;15.80;;
15281;SDS011;7742;44.320;19.820;2023-02-19T09:03:42;17.55;;;16.65;;
15281;SDS011;7742;44.320;19.820;2023-02-19T09:06:10;16.02;;;15.23;;
15281;SDS011;7742;44.320;19.820;2023-02-19T09:08:40;17.50;;;16.60;;
15281;SDS011;7742;44.320;19.820;2023-02-19T09:11:08;16.60;;;15.70;;
15281;SDS011;7742;44.320;19.820;2023-02-19T09:13:36;15.87;;;15.07;;
15281;SDS011;7742;44.320;19.820;2023-02-19T09:16:04;16.58;;;15.77;;
15281;SDS011;7742;44.320;19.820;2023-02-19T09:18:32;17.45;;;16.55;;
15281;SDS011;7742;44.320;19.820;2023-02-19T09:21:00;16.63;;;15.73;;
15281;SDS011;7742;44.320;19.820;2023-02-19T09:23:28;14.93;;;14.23;;
15281;SDS011;7742;44.320;19.820;2023-02-19T09:25:56;16.98;;;16.13;;
15281;SDS011;7742;44.320;19.820;2023-02-19T09:28:26;16.73;;;15.93;;
15281;SDS011;7742;44.320;19.820;2023-02-19T09:30:53;16.50;;;15.60;;
15281;SDS011;7742;44.320;19.820;2023-02-19T09:33:20;16.73;;;15.82;;
15281;SDS011;7742;44.320;19.820;2023-02-19T09:35:47;16.70;;;15.80;;
15281;SDS011;7742;44.320;19.820;2023-02-19T09:38:15;17.20;;;16.30;;
15281;SDS011;7742;44.320;19.820;2023-02-19T09:40:42;18.15;;;17.13;;
15281;SDS011;7742;44.320;19.820;2023-02-19T09:43:10;18.30;;;17.30;;
15281;SDS011;7742;44.320;19.820;2023-02-19T09:45:43;18.05;;;17.10;;
15281;SDS011;7742;44.320;19.820;2023-02-19T09:48:10;17.60;;;16.67;;
15281;SDS011;7742;44.320;19.820;2023-02-19T09:50:39;19.85;;;18.65;;
15281;SDS011;7742;44.320;19.820;2023-02-19T09:53:11;20.50;;;19.25;;
15281;SDS011;7742;44.320;19.820;2023-02-19T09:55:40;21.73;;;20.38;;
15281;SDS011;7742;44.320;19.820;2023-02-19T09:58:13;20.27;;;19.08;;
15281;SDS011;7742;44.320;19.820;2023-02-19T10:00:47;20.90;;;19.52;;
15281;SDS011;7742;44.320;19.820;2023-02-19T10:03:17;23.20;;;21.70;;
15281;SDS011;7742;44.320;19.820;2023-02-19T10:05:49;26.75;;;24.98;;
15281;SDS011;7742;44.320;19.820;2023-02-19T10:08:17;28.40;;;26.40;;
15281;SDS011;7742;44.320;19.820;2023-02-19T10:10:45;25.80;;;24.02;;
15281;SDS011;7742;44.320;19.820;2023-02-19T10:13:17;27.88;;;25.98;;
15281;SDS011;7742;44.320;19.820;2023-02-19T10:15:47;25.92;;;24.20;;
15281;SDS011;7742;44.320;19.820;2023-02-19T10:18:16;24.08;;;22.52;;
15281;SDS011;7742;44.320;19.820;2023-02-19T10:20:45;24.38;;;22.67;;
15281;SDS011;7742;44.320;19.820;2023-02-19T10:23:12;23.98;;;22.42;;
15281;SDS011;7742;44.320;19.820;2023-02-19T10:25:42;24.00;;;22.35;;
15281;SDS011;7742;44.320;19.820;2023-02-19T10:28:13;23.70;;;22.20;;
15281;SDS011;7742;44.320;19.820;2023-02-19T10:30:41;22.48;;;21.08;;
15281;SDS011;7742;44.320;19.820;2023-02-19T10:33:11;21.83;;;20.42;;
15281;SDS011;7742;44.320;19.820;2023-02-19T10:35:49;21.10;;;19.73;;
15281;SDS011;7742;44.320;19.820;2023-02-19T10:38:19;20.90;;;19.70;;
15281;SDS011;7742;44.320;19.820;2023-02-19T10:40:48;21.52;;;20.20;;
15281;SDS011;7742;44.320;19.820;2023-02-19T10:43:19;21.38;;;20.08;;
15281;SDS011;7742;44.320;19.820;2023-02-19T10:45:55;20.98;;;19.58;;
15281;SDS011;7742;44.320;19.820;2023-02-19T10:48:27;20.73;;;19.42;;
15281;SDS011;7742;44.320;19.820;2023-02-19T10:50:57;20.45;;;19.15;;
15281;SDS011;7742;44.320;19.820;2023-02-19T10:53:39;20.50;;;19.20;;
15281;SDS011;7742;44.320;19.820;2023-02-19T10:56:11;19.95;;;18.75;;
15281;SDS011;7742;44.320;19.820;2023-02-19T10:58:39;20.50;;;19.20;;
15281;SDS011;7742;44.320;19.820;2023-02-19T11:01:13;20.15;;;18.95;;
15281;SDS011;7742;44.320;19.820;2023-02-19T11:03:44;20.23;;;19.00;;
15281;SDS011;7742;44.320;19.820;2023-02-19T11:06:12;21.02;;;19.73;;
15281;SDS011;7742;44.320;19.820;2023-02-19T11:08:47;21.38;;;20.00;;
15281;SDS011;7742;44.320;19.820;2023-02-19T11:11:22;20.55;;;19.25;;
15281;SDS011;7742;44.320;19.820;2023-02-19T11:13:54;22.35;;;20.85;;
15281;SDS011;7742;44.320;19.820;2023-02-19T11:16:22;21.15;;;19.85;;
15281;SDS011;7742;44.320;19.820;2023-02-19T11:18:54;20.88;;;19.58;;
15281;SDS011;7742;44.320;19.820;2023-02-19T11:21:23;21.50;;;20.20;;
15281;SDS011;7742;44.320;19.820;2023-02-19T11:23:57;21.48;;;20.20;;
15281;SDS011;7742;44.320;19.820;2023-02-19T11:26:26;21.15;;;19.85;;
15281;SDS011;7742;44.320;19.820;2023-02-19T11:28:54;21.02;;;19.63;;
15281;SDS011;7742;44.320;19.820;2023-02-19T11:31:23;21.00;;;19.70;;
15281;SDS011;7742;44.320;19.820;2023-02-19T11:33:56;20.40;;;19.20;;
15281;SDS011;7742;44.320;19.820;2023-02-19T11:36:28;21.08;;;19.77;;
15281;SDS011;7742;44.320;19.820;2023-02-19T11:38:57;20.17;;;18.87;;
15281;SDS011;7742;44.320;19.820;2023-02-19T11:41:28;21.00;;;19.70;;
15281;SDS011;7742;44.320;19.820;2023-02-19T11:44:12;20.77;;;19.42;;
15281;SDS011;7742;44.320;19.820;2023-02-19T11:46:55;21.40;;;20.10;;
15281;SDS011;7742;44.320;19.820;2023-02-19T11:49:32;20.53;;;19.30;;
15281;SDS011;7742;44.320;19.820;2023-02-19T11:52:09;21.90;;;20.60;;
15281;SDS011;7742;44.320;19.820;2023-02-19T11:54:45;21.42;;;20.13;;
15281;SDS011;7742;44.320;19.820;2023-02-19T11:57:19;20.80;;;19.50;;
15281;SDS011;7742;44.320;19.820;2023-02-19T11:59:54;21.35;;;20.05;;
15281;SDS011;7742;44.320;19.820;2023-02-19T12:02:41;21.50;;;20.10;;
15281;SDS011;7742;44.320;19.820;2023-02-19T12:05:44;21.02;;;19.63;;
15281;SDS011;7742;44.320;19.820;2023-02-19T12:08:19;21.27;;;19.95;;
15281;SDS011;7742;44.320;19.820;2023-02-19T12:14:24;20.33;;;19.13;;
15281;SDS011;7742;44.320;19.820;2023-02-19T12:17:11;21.00;;;19.67;;
15281;SDS011;7742;44.320;19.820;2023-02-19T12:19:50;20.48;;;19.17;;
15281;SDS011;7742;44.320;19.820;2023-02-19T12:22:27;20.98;;;19.58;;
15281;SDS011;7742;44.320;19.820;2023-02-19T12:25:10;22.08;;;20.67;;
15281;SDS011;7742;44.320;19.820;2023-02-19T12:27:54;21.35;;;19.95;;
15281;SDS011;7742;44.320;19.820;2023-02-19T12:30:41;22.27;;;20.87;;
15281;SDS011;7742;44.320;19.820;2023-02-19T12:36:06;21.75;;;20.40;;
15281;SDS011;7742;44.320;19.820;2023-02-19T12:38:41;20.90;;;19.57;;
15281;SDS011;7742;44.320;19.820;2023-02-19T12:41:13;20.98;;;19.67;;
15281;SDS011;7742;44.320;19.820;2023-02-19T12:43:54;20.40;;;19.10;;
15281;SDS011;7742;44.320;19.820;2023-02-19T12:46:27;20.37;;;19.07;;
15281;SDS011;7742;44.320;19.820;2023-02-19T12:48:57;20.30;;;19.10;;
15281;SDS011;7742;44.320;19.820;2023-02-19T12:51:29;20.40;;;19.20;;
15281;SDS011;7742;44.320;19.820;2023-02-19T12:54:03;19.60;;;18.40;;
15281;SDS011;7742;44.320;19.820;2023-02-19T12:56:33;19.50;;;18.20;;
15281;SDS011;7742;44.320;19.820;2023-02-19T12:59:02;19.42;;;18.23;;
15281;SDS011;7742;44.320;19.820;2023-02-19T13:01:35;20.13;;;18.92;;
15281;SDS011;7742;44.320;19.820;2023-02-19T13:04:39;19.63;;;18.43;;
15281;SDS011;7742;44.320;19.820;2023-02-19T13:07:10;20.20;;;18.90;;
15281;SDS011;7742;44.320;19.820;2023-02-19T13:09:40;20.52;;;19.33;;
15281;SDS011;7742;44.320;19.820;2023-02-19T13:12:11;19.70;;;18.58;;
15281;SDS011;7742;44.320;19.820;2023-02-19T13:14:41;19.77;;;18.55;;
15281;SDS011;7742;44.320;19.820;2023-02-19T13:17:15;19.90;;;18.80;;
15281;SDS011;7742;44.320;19.820;2023-02-19T13:19:47;20.70;;;19.40;;
15281;SDS011;7742;44.320;19.820;2023-02-19T13:22:18;18.95;;;17.85;;
15281;SDS011;7742;44.320;19.820;2023-02-19T13:25:08;19.45;;;18.25;;
15281;SDS011;7742;44.320;19.820;2023-02-19T13:27:42;20.65;;;19.45;;
15281;SDS011;7742;44.320;19.820;2023-02-19T13:30:21;20.98;;;19.67;;
15281;SDS011;7742;44.320;19.820;2023-02-19T13:33:04;20.75;;;19.35;;
15281;SDS011;7742;44.320;19.820;2023-02-19T13:36:02;21.33;;;19.90;;
15281;SDS011;7742;44.320;19.820;2023-02-19T13:38:32;21.30;;;20.00;;
15281;SDS011;7742;44.320;19.820;2023-02-19T13:41:05;19.95;;;18.75;;
15281;SDS011;7742;44.320;19.820;2023-02-19T13:43:33;20.40;;;19.20;;
15281;SDS011;7742;44.320;19.820;2023-02-19T13:46:04;21.08;;;19.73;;
15281;SDS011;7742;44.320;19.820;2023-02-19T13:48:33;21.35;;;19.95;;
15281;SDS011;7742;44.320;19.820;2023-02-19T13:54:22;20.10;;;18.90;;
15281;SDS011;7742;44.320;19.820;2023-02-19T13:59:57;21.08;;;19.77;;
15281;SDS011;7742;44.320;19.820;2023-02-19T14:02:29;20.27;;;19.08;;
15281;SDS011;7742;44.320;19.820;2023-02-19T14:04:59;21.27;;;19.90;;
15281;SDS011;7742;44.320;19.820;2023-02-19T14:28:19;19.07;;;17.97;;
15281;SDS011;7742;44.320;19.820;2023-02-19T14:30:50;19.70;;;18.50;;
15281;SDS011;7742;44.320;19.820;2023-02-19T14:33:20;19.30;;;18.13;;
15281;SDS011;7742;44.320;19.820;2023-02-19T14:35:50;20.13;;;18.90;;
15281;SDS011;7742;44.320;19.820;2023-02-19T14:38:20;19.50;;;18.30;;
15281;SDS011;7742;44.320;19.820;2023-02-19T14:40:49;19.80;;;18.60;;
15281;SDS011;7742;44.320;19.820;2023-02-19T14:43:18;19.08;;;17.85;;
15281;SDS011;7742;44.320;19.820;2023-02-19T14:45:47;21.10;;;19.73;;
15281;SDS011;7742;44.320;19.820;2023-02-19T14:48:16;20.92;;;19.63;;
15281;SDS011;7742;44.320;19.820;2023-02-19T14:50:48;20.38;;;19.08;;
15281;SDS011;7742;44.320;19.820;2023-02-19T14:53:16;20.90;;;19.60;;
15281;SDS011;7742;44.320;19.820;2023-02-19T14:55:45;21.20;;;19.92;;
15281;SDS011;7742;44.320;19.820;2023-02-19T14:58:12;21.13;;;19.92;;
15281;SDS011;7742;44.320;19.820;2023-02-19T15:00:42;21.45;;;20.15;;
15281;SDS011;7742;44.320;19.820;2023-02-19T15:03:25;20.90;;;19.60;;
15281;SDS011;7742;44.320;19.820;2023-02-19T15:05:54;21.02;;;19.73;;
15281;SDS011;7742;44.320;19.820;2023-02-19T15:08:25;19.65;;;18.48;;
15281;SDS011;7742;44.320;19.820;2023-02-19T15:10:55;19.83;;;18.52;;
15281;SDS011;7742;44.320;19.820;2023-02-19T15:13:24;20.38;;;19.17;;
15281;SDS011;7742;44.320;19.820;2023-02-19T15:15:52;20.52;;;19.23;;
15281;SDS011;7742;44.320;19.820;2023-02-19T15:18:21;19.35;;;18.25;;
15281;SDS011;7742;44.320;19.820;2023-02-19T15:20:57;19.80;;;18.60;;
15281;SDS011;7742;44.320;19.820;2023-02-19T15:23:25;20.70;;;19.48;;
15281;SDS011;7742;44.320;19.820;2023-02-19T15:25:54;18.80;;;17.70;;
15281;SDS011;7742;44.320;19.820;2023-02-19T15:28:27;20.48;;;19.17;;
15281;SDS011;7742;44.320;19.820;2023-02-19T15:31:04;19.98;;;18.58;;
15281;SDS011;7742;44.320;19.820;2023-02-19T15:33:34;19.30;;;18.13;;
15281;SDS011;7742;44.320;19.820;2023-02-19T15:36:02;19.35;;;18.05;;
15281;SDS011;7742;44.320;19.820;2023-02-19T15:38:31;20.45;;;19.08;;
15281;SDS011;7742;44.320;19.820;2023-02-19T15:40:58;20.10;;;18.90;;
15281;SDS011;7742;44.320;19.820;2023-02-19T15:43:27;19.88;;;18.67;;
15281;SDS011;7742;44.320;19.820;2023-02-19T15:45:56;20.63;;;19.33;;
15281;SDS011;7742;44.320;19.820;2023-02-19T15:48:26;20.90;;;19.60;;